DAL1744 KSLC-KBOI
Flight info
| Callsign | DAL1744 |
|---|---|
| Flight time | 0h 46m |
| Altitude | 30000 |
| Route | CGULL1 TWF BROPH SPUUD4 |
| Aircraft | A320/M-SDE3FGHIRWY/LB1 |
Departure
| Time | 2026-05-08 05:05 |
|---|---|
| Airport | Salt Lake City International Airport (KSLC) |
Arrival
| Time | 2026-05-08 05:52 |
|---|---|
| Airport | Boise Air Terminal/Gowen Field (KBOI) |
| Time | Latitude | Longitude | Altitude | Speed | Heading |
|---|---|---|---|---|---|
| 2026-05-08 04:36 | 40.78656 | -111.98050 | 4233 ft | 0 kts | 175° |
| 2026-05-08 04:54 | 40.78669 | -111.98051 | 4231 ft | 4 kts | 173° |
| 2026-05-08 04:55 | 40.78695 | -111.98057 | 4230 ft | 4 kts | 165° |
| 2026-05-08 04:55 | 40.78720 | -111.98069 | 4231 ft | 4 kts | 143° |
| 2026-05-08 04:55 | 40.78733 | -111.98091 | 4231 ft | 2 kts | 85° |
| 2026-05-08 04:55 | 40.78733 | -111.98093 | 4231 ft | 0 kts | 85° |
| 2026-05-08 04:58 | 40.78733 | -111.98092 | 4231 ft | 1 kts | 85° |
| 2026-05-08 04:58 | 40.78735 | -111.98059 | 4232 ft | 6 kts | 85° |
| 2026-05-08 04:59 | 40.78741 | -111.97976 | 4233 ft | 12 kts | 85° |
| 2026-05-08 04:59 | 40.78749 | -111.97856 | 4234 ft | 14 kts | 85° |
| 2026-05-08 04:59 | 40.78755 | -111.97719 | 4233 ft | 14 kts | 102° |
| 2026-05-08 04:59 | 40.78696 | -111.97674 | 4233 ft | 8 kts | 174° |
| 2026-05-08 05:00 | 40.78634 | -111.97666 | 4233 ft | 11 kts | 175° |
| 2026-05-08 05:00 | 40.78539 | -111.97656 | 4230 ft | 17 kts | 175° |
| 2026-05-08 05:00 | 40.78401 | -111.97639 | 4228 ft | 22 kts | 174° |
| 2026-05-08 05:00 | 40.78239 | -111.97621 | 4226 ft | 24 kts | 174° |
| 2026-05-08 05:01 | 40.78068 | -111.97600 | 4225 ft | 25 kts | 174° |
| 2026-05-08 05:01 | 40.77899 | -111.97560 | 4251 ft | 25 kts | 149° |
| 2026-05-08 05:01 | 40.77741 | -111.97514 | 4254 ft | 18 kts | 174° |
| 2026-05-08 05:01 | 40.77631 | -111.97500 | 4255 ft | 16 kts | 175° |
| 2026-05-08 05:02 | 40.77510 | -111.97487 | 4253 ft | 19 kts | 174° |
| 2026-05-08 05:02 | 40.77464 | -111.97468 | 4253 ft | 0 kts | 145° |
| 2026-05-08 05:02 | 40.77452 | -111.97454 | 4253 ft | 6 kts | 136° |
| 2026-05-08 05:03 | 40.77449 | -111.97374 | 4252 ft | 13 kts | 71° |
| 2026-05-08 05:03 | 40.77533 | -111.97322 | 4252 ft | 16 kts | 356° |
| 2026-05-08 05:03 | 40.77545 | -111.97322 | 4252 ft | 0 kts | 356° |
| 2026-05-08 05:04 | 40.77547 | -111.97322 | 4252 ft | 3 kts | 356° |
| 2026-05-08 05:04 | 40.77733 | -111.97344 | 4252 ft | 63 kts | 354° |
| 2026-05-08 05:04 | 40.78401 | -111.97421 | 4229 ft | 127 kts | 355° |
| 2026-05-08 05:05 | 40.79469 | -111.97548 | 4230 ft | 179 kts | 355° |
| 2026-05-08 05:05 | 40.80749 | -111.97693 | 4760 ft | 185 kts | 354° |
| 2026-05-08 05:05 | 40.82028 | -111.97912 | 5380 ft | 186 kts | 343° |
| 2026-05-08 05:05 | 40.83061 | -111.98870 | 5996 ft | 186 kts | 305° |
| 2026-05-08 05:06 | 40.83694 | -112.00456 | 6155 ft | 206 kts | 293° |
| 2026-05-08 05:06 | 40.84239 | -112.02294 | 6304 ft | 224 kts | 290° |
| 2026-05-08 05:06 | 40.84790 | -112.04286 | 6465 ft | 238 kts | 289° |
| 2026-05-08 05:06 | 40.85602 | -112.06294 | 6487 ft | 260 kts | 307° |
| 2026-05-08 05:07 | 40.86741 | -112.08238 | 6631 ft | 274 kts | 308° |
| 2026-05-08 05:07 | 40.87931 | -112.10224 | 7028 ft | 276 kts | 309° |
| 2026-05-08 05:07 | 40.89130 | -112.12206 | 7519 ft | 276 kts | 309° |
| 2026-05-08 05:07 | 40.90327 | -112.14195 | 8006 ft | 277 kts | 309° |
| 2026-05-08 05:08 | 40.91522 | -112.16194 | 8506 ft | 278 kts | 308° |
| 2026-05-08 05:08 | 40.92719 | -112.18210 | 9388 ft | 278 kts | 308° |
| 2026-05-08 05:08 | 40.93915 | -112.20235 | 10201 ft | 283 kts | 308° |
| 2026-05-08 05:08 | 40.95176 | -112.22375 | 10503 ft | 305 kts | 307° |
| 2026-05-08 05:09 | 40.96503 | -112.24629 | 11156 ft | 314 kts | 307° |
| 2026-05-08 05:09 | 40.97848 | -112.26925 | 11983 ft | 317 kts | 307° |
| 2026-05-08 05:09 | 40.99199 | -112.29239 | 12825 ft | 319 kts | 307° |
| 2026-05-08 05:09 | 41.00557 | -112.31565 | 13670 ft | 320 kts | 306° |
| 2026-05-08 05:10 | 41.01924 | -112.33903 | 14407 ft | 323 kts | 307° |
| 2026-05-08 05:10 | 41.04703 | -112.38662 | 15753 ft | 330 kts | 307° |
| 2026-05-08 05:10 | 41.06122 | -112.41072 | 16415 ft | 334 kts | 310° |
| 2026-05-08 05:11 | 41.07779 | -112.43196 | 17060 ft | 339 kts | 321° |
| 2026-05-08 05:11 | 41.09746 | -112.44939 | 17713 ft | 343 kts | 326° |
| 2026-05-08 05:11 | 41.11772 | -112.46634 | 18330 ft | 346 kts | 327° |
| 2026-05-08 05:11 | 41.13820 | -112.48348 | 18894 ft | 350 kts | 327° |
| 2026-05-08 05:12 | 41.15890 | -112.50079 | 19462 ft | 353 kts | 327° |
| 2026-05-08 05:12 | 41.17954 | -112.51872 | 20041 ft | 356 kts | 324° |
| 2026-05-08 05:12 | 41.19971 | -112.53811 | 20607 ft | 360 kts | 323° |
| 2026-05-08 05:12 | 41.21964 | -112.55849 | 21170 ft | 363 kts | 322° |
| 2026-05-08 05:13 | 41.23954 | -112.57939 | 21715 ft | 367 kts | 322° |
| 2026-05-08 05:13 | 41.25966 | -112.60055 | 22280 ft | 370 kts | 322° |
| 2026-05-08 05:13 | 41.27957 | -112.62252 | 22820 ft | 374 kts | 316° |
| 2026-05-08 05:13 | 41.29732 | -112.64808 | 23379 ft | 378 kts | 313° |
| 2026-05-08 05:14 | 41.31506 | -112.67413 | 23854 ft | 381 kts | 313° |
| 2026-05-08 05:14 | 41.33293 | -112.70025 | 24364 ft | 383 kts | 313° |
| 2026-05-08 05:14 | 41.35085 | -112.72638 | 24911 ft | 382 kts | 314° |
| 2026-05-08 05:14 | 41.36878 | -112.75256 | 25410 ft | 383 kts | 314° |
| 2026-05-08 05:15 | 41.38675 | -112.77879 | 25885 ft | 384 kts | 314° |
| 2026-05-08 05:15 | 41.40475 | -112.80516 | 26281 ft | 386 kts | 313° |
| 2026-05-08 05:15 | 41.42267 | -112.83196 | 26718 ft | 388 kts | 313° |
| 2026-05-08 05:15 | 41.44047 | -112.85911 | 27166 ft | 389 kts | 312° |
| 2026-05-08 05:16 | 41.45823 | -112.88642 | 27609 ft | 391 kts | 312° |
| 2026-05-08 05:16 | 41.47602 | -112.91390 | 28044 ft | 392 kts | 312° |
| 2026-05-08 05:16 | 41.49384 | -112.94142 | 28502 ft | 393 kts | 312° |
| 2026-05-08 05:16 | 41.51175 | -112.96898 | 28932 ft | 394 kts | 312° |
| 2026-05-08 05:17 | 41.52976 | -112.99664 | 29346 ft | 395 kts | 313° |
| 2026-05-08 05:17 | 41.54778 | -113.02433 | 29742 ft | 396 kts | 313° |
| 2026-05-08 05:17 | 41.56586 | -113.05214 | 29905 ft | 394 kts | 313° |
| 2026-05-08 05:17 | 41.58341 | -113.07917 | 29921 ft | 377 kts | 313° |
| 2026-05-08 05:18 | 41.60026 | -113.10515 | 29925 ft | 365 kts | 313° |
| 2026-05-08 05:18 | 41.63326 | -113.15591 | 29948 ft | 360 kts | 312° |
| 2026-05-08 05:19 | 41.66604 | -113.20646 | 29934 ft | 360 kts | 312° |
| 2026-05-08 05:19 | 41.69875 | -113.25709 | 29937 ft | 359 kts | 312° |
| 2026-05-08 05:20 | 41.73136 | -113.30771 | 29941 ft | 359 kts | 312° |
| 2026-05-08 05:20 | 41.76398 | -113.35831 | 29936 ft | 359 kts | 312° |
| 2026-05-08 05:21 | 41.79631 | -113.40864 | 29937 ft | 359 kts | 312° |
| 2026-05-08 05:21 | 41.82889 | -113.45940 | 29917 ft | 360 kts | 312° |
| 2026-05-08 05:22 | 41.86154 | -113.51030 | 29927 ft | 360 kts | 312° |
| 2026-05-08 05:22 | 41.89424 | -113.56138 | 29929 ft | 361 kts | 312° |
| 2026-05-08 05:23 | 41.92693 | -113.61250 | 29940 ft | 361 kts | 312° |
| 2026-05-08 05:23 | 41.95956 | -113.66370 | 29950 ft | 360 kts | 312° |
| 2026-05-08 05:24 | 41.99204 | -113.71487 | 29946 ft | 360 kts | 312° |
| 2026-05-08 05:24 | 42.02454 | -113.76611 | 29932 ft | 360 kts | 312° |
| 2026-05-08 05:25 | 42.05708 | -113.81729 | 29935 ft | 361 kts | 312° |
| 2026-05-08 05:25 | 42.08968 | -113.86874 | 29939 ft | 362 kts | 311° |
| 2026-05-08 05:26 | 42.12225 | -113.92032 | 29951 ft | 362 kts | 311° |
| 2026-05-08 05:26 | 42.15482 | -113.97204 | 29943 ft | 361 kts | 311° |
| 2026-05-08 05:27 | 42.18739 | -114.02365 | 29939 ft | 361 kts | 312° |
| 2026-05-08 05:27 | 42.22006 | -114.07522 | 29925 ft | 362 kts | 311° |
| 2026-05-08 05:28 | 42.25283 | -114.12697 | 29921 ft | 363 kts | 311° |
| 2026-05-08 05:28 | 42.28563 | -114.17902 | 29930 ft | 364 kts | 311° |
| 2026-05-08 05:29 | 42.31840 | -114.23118 | 29931 ft | 364 kts | 311° |
| 2026-05-08 05:29 | 42.35115 | -114.28343 | 29943 ft | 364 kts | 311° |
| 2026-05-08 05:30 | 42.38387 | -114.33566 | 29944 ft | 364 kts | 311° |
| 2026-05-08 05:30 | 42.41656 | -114.38788 | 30044 ft | 364 kts | 311° |
| 2026-05-08 05:31 | 42.44923 | -114.44019 | 30043 ft | 364 kts | 311° |
| 2026-05-08 05:31 | 42.48181 | -114.49259 | 30043 ft | 364 kts | 311° |
| 2026-05-08 05:32 | 42.51456 | -114.54482 | 30059 ft | 363 kts | 311° |
| 2026-05-08 05:32 | 42.54740 | -114.59692 | 30027 ft | 363 kts | 311° |
| 2026-05-08 05:33 | 42.58014 | -114.64923 | 30005 ft | 364 kts | 311° |
| 2026-05-08 05:33 | 42.61286 | -114.70173 | 29988 ft | 364 kts | 311° |
| 2026-05-08 05:33 | 42.62922 | -114.72796 | 29777 ft | 364 kts | 311° |
| 2026-05-08 05:34 | 42.64551 | -114.75402 | 29327 ft | 360 kts | 311° |
| 2026-05-08 05:34 | 42.66158 | -114.77975 | 28919 ft | 354 kts | 311° |
| 2026-05-08 05:34 | 42.67739 | -114.80514 | 28523 ft | 349 kts | 310° |
| 2026-05-08 05:34 | 42.69294 | -114.83018 | 28141 ft | 345 kts | 310° |
| 2026-05-08 05:35 | 42.70831 | -114.85497 | 27704 ft | 342 kts | 310° |
| 2026-05-08 05:35 | 42.72360 | -114.87949 | 27278 ft | 338 kts | 311° |
| 2026-05-08 05:35 | 42.73928 | -114.90318 | 26844 ft | 336 kts | 313° |
| 2026-05-08 05:35 | 42.75529 | -114.92614 | 26414 ft | 333 kts | 314° |
| 2026-05-08 05:36 | 42.77138 | -114.94872 | 25979 ft | 331 kts | 314° |
| 2026-05-08 05:36 | 42.78739 | -114.97114 | 25532 ft | 330 kts | 313° |
| 2026-05-08 05:36 | 42.79794 | -114.98600 | 25240 ft | 329 kts | 313° |
| 2026-05-08 05:36 | 42.81377 | -115.00847 | 24791 ft | 329 kts | 313° |
| 2026-05-08 05:37 | 42.82954 | -115.03099 | 24337 ft | 329 kts | 313° |
| 2026-05-08 05:37 | 42.84529 | -115.05360 | 23874 ft | 329 kts | 312° |
| 2026-05-08 05:37 | 42.86105 | -115.07628 | 23393 ft | 330 kts | 312° |
| 2026-05-08 05:37 | 42.87681 | -115.09901 | 22910 ft | 329 kts | 312° |
| 2026-05-08 05:38 | 42.89252 | -115.12167 | 22485 ft | 328 kts | 312° |
| 2026-05-08 05:38 | 42.90815 | -115.14426 | 22032 ft | 327 kts | 312° |
| 2026-05-08 05:38 | 42.92372 | -115.16678 | 21589 ft | 326 kts | 312° |
| 2026-05-08 05:38 | 42.93922 | -115.18924 | 21152 ft | 325 kts | 312° |
| 2026-05-08 05:39 | 42.95464 | -115.21163 | 20707 ft | 323 kts | 312° |
| 2026-05-08 05:39 | 42.97004 | -115.23401 | 20288 ft | 323 kts | 312° |
| 2026-05-08 05:39 | 42.98541 | -115.25634 | 19859 ft | 322 kts | 312° |
| 2026-05-08 05:39 | 43.00073 | -115.27860 | 19442 ft | 321 kts | 312° |
| 2026-05-08 05:40 | 43.01597 | -115.30082 | 19025 ft | 320 kts | 312° |
| 2026-05-08 05:40 | 43.03116 | -115.32303 | 18609 ft | 320 kts | 312° |
| 2026-05-08 05:40 | 43.04634 | -115.34522 | 18194 ft | 319 kts | 312° |
| 2026-05-08 05:40 | 43.06151 | -115.36737 | 17741 ft | 318 kts | 312° |
| 2026-05-08 05:41 | 43.07658 | -115.38937 | 17331 ft | 316 kts | 312° |
| 2026-05-08 05:41 | 43.09158 | -115.41127 | 16934 ft | 314 kts | 312° |
| 2026-05-08 05:41 | 43.10647 | -115.43302 | 16540 ft | 312 kts | 312° |
| 2026-05-08 05:41 | 43.12129 | -115.45467 | 16156 ft | 311 kts | 312° |
| 2026-05-08 05:42 | 43.13602 | -115.47623 | 15774 ft | 309 kts | 312° |
| 2026-05-08 05:42 | 43.15046 | -115.49739 | 15402 ft | 308 kts | 312° |
| 2026-05-08 05:42 | 43.16525 | -115.51904 | 15013 ft | 306 kts | 313° |
| 2026-05-08 05:42 | 43.17958 | -115.54001 | 14638 ft | 305 kts | 313° |
| 2026-05-08 05:43 | 43.19409 | -115.56124 | 14254 ft | 304 kts | 313° |
| 2026-05-08 05:43 | 43.20850 | -115.58237 | 13873 ft | 303 kts | 313° |
| 2026-05-08 05:43 | 43.22289 | -115.60344 | 13459 ft | 302 kts | 313° |
| 2026-05-08 05:43 | 43.23718 | -115.62435 | 13161 ft | 297 kts | 313° |
| 2026-05-08 05:44 | 43.25105 | -115.64470 | 12964 ft | 289 kts | 312° |
| 2026-05-08 05:44 | 43.26471 | -115.66476 | 12571 ft | 285 kts | 312° |
| 2026-05-08 05:44 | 43.27823 | -115.68438 | 11979 ft | 280 kts | 314° |
| 2026-05-08 05:44 | 43.29190 | -115.70265 | 11582 ft | 271 kts | 315° |
| 2026-05-08 05:45 | 43.30576 | -115.72027 | 11206 ft | 272 kts | 316° |
| 2026-05-08 05:45 | 43.31971 | -115.73776 | 10822 ft | 272 kts | 316° |
| 2026-05-08 05:45 | 43.33361 | -115.75524 | 10449 ft | 271 kts | 316° |
| 2026-05-08 05:45 | 43.34743 | -115.77278 | 10142 ft | 268 kts | 315° |
| 2026-05-08 05:46 | 43.36081 | -115.78984 | 10023 ft | 257 kts | 315° |
| 2026-05-08 05:46 | 43.37369 | -115.80635 | 9839 ft | 250 kts | 315° |
| 2026-05-08 05:46 | 43.38623 | -115.82259 | 9716 ft | 248 kts | 315° |
| 2026-05-08 05:46 | 43.39851 | -115.83920 | 9378 ft | 247 kts | 314° |
| 2026-05-08 05:47 | 43.41057 | -115.85589 | 9028 ft | 245 kts | 314° |
| 2026-05-08 05:47 | 43.42255 | -115.87255 | 8684 ft | 244 kts | 314° |
| 2026-05-08 05:47 | 43.43445 | -115.88910 | 8344 ft | 243 kts | 315° |
| 2026-05-08 05:47 | 43.44628 | -115.90546 | 8037 ft | 239 kts | 315° |
| 2026-05-08 05:48 | 43.45770 | -115.92122 | 7980 ft | 225 kts | 315° |
| 2026-05-08 05:48 | 43.46745 | -115.93730 | 7979 ft | 218 kts | 300° |
| 2026-05-08 05:48 | 43.47408 | -115.95611 | 7986 ft | 218 kts | 297° |
| 2026-05-08 05:48 | 43.48055 | -115.97501 | 7988 ft | 219 kts | 297° |
| 2026-05-08 05:49 | 43.48702 | -115.99394 | 7988 ft | 219 kts | 297° |
| 2026-05-08 05:49 | 43.49354 | -116.01297 | 7914 ft | 222 kts | 297° |
| 2026-05-08 05:49 | 43.50032 | -116.03268 | 7317 ft | 233 kts | 297° |
| 2026-05-08 05:49 | 43.50742 | -116.05333 | 6719 ft | 242 kts | 297° |
| 2026-05-08 05:50 | 43.51460 | -116.07424 | 6105 ft | 240 kts | 297° |
| 2026-05-08 05:50 | 43.52172 | -116.09498 | 5478 ft | 239 kts | 297° |
| 2026-05-08 05:50 | 43.52874 | -116.11564 | 4895 ft | 237 kts | 294° |
| 2026-05-08 05:50 | 43.53498 | -116.13657 | 4280 ft | 235 kts | 291° |
| 2026-05-08 05:51 | 43.54107 | -116.15735 | 3734 ft | 229 kts | 294° |
| 2026-05-08 05:51 | 43.54737 | -116.17673 | 3427 ft | 215 kts | 295° |
| 2026-05-08 05:51 | 43.55354 | -116.19493 | 3137 ft | 203 kts | 296° |
| 2026-05-08 05:51 | 43.55938 | -116.21185 | 2902 ft | 187 kts | 297° |
| 2026-05-08 05:52 | 43.56422 | -116.22552 | 2855 ft | 118 kts | 293° |
| 2026-05-08 05:52 | 43.56644 | -116.23200 | 2850 ft | 39 kts | 295° |
| 2026-05-08 05:52 | 43.56758 | -116.23530 | 2846 ft | 37 kts | 296° |
| 2026-05-08 05:52 | 43.56855 | -116.23814 | 2848 ft | 17 kts | 297° |
| 2026-05-08 05:53 | 43.56898 | -116.23802 | 2848 ft | 8 kts | 79° |
| 2026-05-08 05:53 | 43.56921 | -116.23739 | 2845 ft | 8 kts | 35° |
| 2026-05-08 05:53 | 43.56981 | -116.23698 | 2842 ft | 11 kts | 25° |
| 2026-05-08 05:53 | 43.57049 | -116.23656 | 2844 ft | 11 kts | 15° |
| 2026-05-08 05:54 | 43.57115 | -116.23598 | 2842 ft | 13 kts | 58° |
| 2026-05-08 05:54 | 43.57096 | -116.23488 | 2842 ft | 12 kts | 138° |
| 2026-05-08 05:54 | 43.57049 | -116.23414 | 2842 ft | 9 kts | 116° |
| 2026-05-08 05:54 | 43.57015 | -116.23318 | 2840 ft | 16 kts | 115° |
| 2026-05-08 05:55 | 43.56960 | -116.23155 | 2841 ft | 19 kts | 115° |
| 2026-05-08 05:55 | 43.56904 | -116.22989 | 2843 ft | 20 kts | 115° |
| 2026-05-08 05:55 | 43.56845 | -116.22814 | 2845 ft | 20 kts | 115° |
| 2026-05-08 05:55 | 43.56787 | -116.22642 | 2849 ft | 20 kts | 114° |
| 2026-05-08 05:56 | 43.56724 | -116.22466 | 2850 ft | 20 kts | 121° |
| 2026-05-08 05:56 | 43.56663 | -116.22287 | 2850 ft | 22 kts | 115° |
| 2026-05-08 05:56 | 43.56607 | -116.22093 | 2854 ft | 20 kts | 94° |
| 2026-05-08 05:56 | 43.56666 | -116.21996 | 2856 ft | 12 kts | 31° |
| 2026-05-08 05:57 | 43.56692 | -116.21974 | 2854 ft | 0 kts | 32° |